sensor_id;sensor_type;location;lat;lon;timestamp;P1;durP1;ratioP1;P2;durP2;ratioP2
85210;SDS011;75591;44.496;0.166;2024-02-23T00:05:49;7.60;;;1.87;;
85210;SDS011;75591;44.496;0.166;2024-02-23T00:21:08;25.83;;;2.23;;
85210;SDS011;75591;44.496;0.166;2024-02-23T00:36:27;22.93;;;2.87;;
85210;SDS011;75591;44.496;0.166;2024-02-23T00:51:46;8.20;;;0.97;;
85210;SDS011;75591;44.496;0.166;2024-02-23T01:07:06;24.37;;;3.73;;
85210;SDS011;75591;44.496;0.166;2024-02-23T01:22:26;25.20;;;3.87;;
85210;SDS011;75591;44.496;0.166;2024-02-23T01:37:43;21.83;;;2.80;;
85210;SDS011;75591;44.496;0.166;2024-02-23T01:53:03;19.73;;;2.60;;
85210;SDS011;75591;44.496;0.166;2024-02-23T02:08:23;11.30;;;2.23;;
85210;SDS011;75591;44.496;0.166;2024-02-23T02:23:43;8.00;;;1.20;;
85210;SDS011;75591;44.496;0.166;2024-02-23T02:39:03;12.43;;;1.50;;
85210;SDS011;75591;44.496;0.166;2024-02-23T02:54:22;15.50;;;1.37;;
85210;SDS011;75591;44.496;0.166;2024-02-23T03:09:42;4.63;;;0.50;;
85210;SDS011;75591;44.496;0.166;2024-02-23T03:25:08;3.20;;;0.97;;
85210;SDS011;75591;44.496;0.166;2024-02-23T03:40:21;3.33;;;0.30;;
85210;SDS011;75591;44.496;0.166;2024-02-23T03:55:39;3.43;;;0.63;;
85210;SDS011;75591;44.496;0.166;2024-02-23T04:10:58;3.13;;;0.50;;
85210;SDS011;75591;44.496;0.166;2024-02-23T04:26:18;1.77;;;0.30;;
85210;SDS011;75591;44.496;0.166;2024-02-23T04:41:38;3.43;;;0.67;;
85210;SDS011;75591;44.496;0.166;2024-02-23T04:56:58;0.50;;;0.27;;
85210;SDS011;75591;44.496;0.166;2024-02-23T05:12:17;7.43;;;0.93;;
85210;SDS011;75591;44.496;0.166;2024-02-23T05:27:37;3.30;;;0.50;;
85210;SDS011;75591;44.496;0.166;2024-02-23T05:42:58;2.67;;;0.70;;
85210;SDS011;75591;44.496;0.166;2024-02-23T05:58:17;7.10;;;0.80;;
85210;SDS011;75591;44.496;0.166;2024-02-23T06:13:37;8.03;;;0.73;;
85210;SDS011;75591;44.496;0.166;2024-02-23T06:28:56;7.77;;;0.90;;
85210;SDS011;75591;44.496;0.166;2024-02-23T06:44:15;3.27;;;0.30;;
85210;SDS011;75591;44.496;0.166;2024-02-23T06:59:33;4.77;;;0.50;;
85210;SDS011;75591;44.496;0.166;2024-02-23T07:14:54;6.03;;;0.40;;
85210;SDS011;75591;44.496;0.166;2024-02-23T07:30:13;3.57;;;0.43;;
85210;SDS011;75591;44.496;0.166;2024-02-23T07:45:34;8.33;;;0.90;;
85210;SDS011;75591;44.496;0.166;2024-02-23T08:00:53;1.63;;;0.30;;
85210;SDS011;75591;44.496;0.166;2024-02-23T08:16:15;1.87;;;0.40;;
85210;SDS011;75591;44.496;0.166;2024-02-23T08:31:33;5.60;;;0.50;;
85210;SDS011;75591;44.496;0.166;2024-02-23T08:46:52;2.90;;;0.30;;
85210;SDS011;75591;44.496;0.166;2024-02-23T09:02:12;5.23;;;0.70;;
85210;SDS011;75591;44.496;0.166;2024-02-23T09:17:30;2.80;;;0.33;;
85210;SDS011;75591;44.496;0.166;2024-02-23T09:32:54;0.30;;;0.30;;
85210;SDS011;75591;44.496;0.166;2024-02-23T09:48:11;8.33;;;1.03;;
85210;SDS011;75591;44.496;0.166;2024-02-23T10:03:35;5.40;;;0.60;;
85210;SDS011;75591;44.496;0.166;2024-02-23T10:18:55;2.93;;;0.50;;
85210;SDS011;75591;44.496;0.166;2024-02-23T10:34:17;2.93;;;0.57;;
85210;SDS011;75591;44.496;0.166;2024-02-23T10:49:35;2.07;;;0.47;;
85210;SDS011;75591;44.496;0.166;2024-02-23T11:04:51;3.23;;;0.53;;
85210;SDS011;75591;44.496;0.166;2024-02-23T11:20:09;9.37;;;0.70;;
85210;SDS011;75591;44.496;0.166;2024-02-23T11:35:26;2.80;;;0.53;;
85210;SDS011;75591;44.496;0.166;2024-02-23T11:50:48;0.40;;;0.20;;
85210;SDS011;75591;44.496;0.166;2024-02-23T12:06:10;4.80;;;0.67;;
85210;SDS011;75591;44.496;0.166;2024-02-23T12:21:33;0.07;;;0.07;;
85210;SDS011;75591;44.496;0.166;2024-02-23T12:36:52;1.60;;;0.70;;
85210;SDS011;75591;44.496;0.166;2024-02-23T12:52:12;0.63;;;0.50;;
85210;SDS011;75591;44.496;0.166;2024-02-23T13:07:30;2.07;;;0.40;;
85210;SDS011;75591;44.496;0.166;2024-02-23T13:22:48;8.37;;;0.63;;
85210;SDS011;75591;44.496;0.166;2024-02-23T13:38:04;3.40;;;0.97;;
85210;SDS011;75591;44.496;0.166;2024-02-23T13:53:23;0.63;;;0.40;;
85210;SDS011;75591;44.496;0.166;2024-02-23T14:08:43;1.80;;;0.20;;
85210;SDS011;75591;44.496;0.166;2024-02-23T14:24:03;0.37;;;0.20;;
85210;SDS011;75591;44.496;0.166;2024-02-23T14:39:23;0.73;;;0.30;;
85210;SDS011;75591;44.496;0.166;2024-02-23T14:54:42;8.97;;;0.60;;
85210;SDS011;75591;44.496;0.166;2024-02-23T15:10:06;0.70;;;0.40;;
85210;SDS011;75591;44.496;0.166;2024-02-23T15:25:21;4.73;;;1.90;;
85210;SDS011;75591;44.496;0.166;2024-02-23T15:40:42;1.70;;;0.47;;
85210;SDS011;75591;44.496;0.166;2024-02-23T15:56:03;0.73;;;0.20;;
85210;SDS011;75591;44.496;0.166;2024-02-23T16:11:22;5.67;;;0.40;;
85210;SDS011;75591;44.496;0.166;2024-02-23T16:26:40;2.83;;;0.37;;
85210;SDS011;75591;44.496;0.166;2024-02-23T16:41:59;4.57;;;0.30;;
85210;SDS011;75591;44.496;0.166;2024-02-23T16:57:17;3.80;;;0.50;;
85210;SDS011;75591;44.496;0.166;2024-02-23T17:12:36;8.33;;;1.17;;
85210;SDS011;75591;44.496;0.166;2024-02-23T17:27:55;6.93;;;0.67;;
85210;SDS011;75591;44.496;0.166;2024-02-23T17:43:15;3.57;;;0.80;;
85210;SDS011;75591;44.496;0.166;2024-02-23T17:58:36;14.10;;;3.27;;
85210;SDS011;75591;44.496;0.166;2024-02-23T18:13:55;7.03;;;0.50;;
85210;SDS011;75591;44.496;0.166;2024-02-23T18:29:14;1.20;;;0.20;;
85210;SDS011;75591;44.496;0.166;2024-02-23T18:44:32;0.73;;;0.70;;
85210;SDS011;75591;44.496;0.166;2024-02-23T18:59:50;0.63;;;0.30;;
85210;SDS011;75591;44.496;0.166;2024-02-23T19:15:10;2.00;;;0.50;;
85210;SDS011;75591;44.496;0.166;2024-02-23T19:30:30;4.77;;;1.17;;
85210;SDS011;75591;44.496;0.166;2024-02-23T19:45:50;3.10;;;0.30;;
85210;SDS011;75591;44.496;0.166;2024-02-23T20:01:07;1.53;;;0.40;;
85210;SDS011;75591;44.496;0.166;2024-02-23T20:16:26;1.30;;;0.47;;
85210;SDS011;75591;44.496;0.166;2024-02-23T20:31:45;5.83;;;0.77;;
85210;SDS011;75591;44.496;0.166;2024-02-23T20:47:05;0.93;;;0.50;;
85210;SDS011;75591;44.496;0.166;2024-02-23T21:02:25;0.53;;;0.27;;
85210;SDS011;75591;44.496;0.166;2024-02-23T21:17:45;0.97;;;0.47;;
85210;SDS011;75591;44.496;0.166;2024-02-23T21:33:04;3.80;;;0.57;;
85210;SDS011;75591;44.496;0.166;2024-02-23T21:48:24;0.30;;;0.30;;
85210;SDS011;75591;44.496;0.166;2024-02-23T22:03:44;1.93;;;0.47;;
85210;SDS011;75591;44.496;0.166;2024-02-23T22:19:03;7.07;;;0.60;;
85210;SDS011;75591;44.496;0.166;2024-02-23T22:34:24;2.93;;;0.37;;
85210;SDS011;75591;44.496;0.166;2024-02-23T22:49:43;1.43;;;0.50;;
85210;SDS011;75591;44.496;0.166;2024-02-23T23:05:03;3.20;;;0.30;;
85210;SDS011;75591;44.496;0.166;2024-02-23T23:20:23;6.10;;;0.67;;
85210;SDS011;75591;44.496;0.166;2024-02-23T23:35:41;6.00;;;0.40;;
85210;SDS011;75591;44.496;0.166;2024-02-23T23:50:59;0.40;;;0.40;;
